Time;durP1;ratioP1;P1;durP2;ratioP2;P2;SDS_P1;SDS_P2;PMS_P1;PMS_P2;Temp;Humidity;BMP_temperature;BMP_pressure;BME280_temperature;BME280_humidity;BME280_pressure;Samples;Min_cycle;Max_cycle;Signal;HPM_P1;HPM_P2
2023/12/08 00:02:07;;;;;;;0.00;0.00;;;;;;;;;;6272104;22;20083;-87
2023/12/08 00:04:33;;;;;;;0.00;0.00;;;;;;;;;;6271223;23;20016;-86
2023/12/08 00:06:58;;;;;;;0.00;0.00;;;;;;;;;;6245793;22;19976;-90
2023/12/08 00:09:24;;;;;;;0.00;0.00;;;;;;;;;;6273509;23;20012;-87
2023/12/08 00:11:50;;;;;;;0.00;0.00;;;;;;;;;;6273871;22;20004;-86
2023/12/08 00:14:15;;;;;;;0.00;0.00;;;;;;;;;;6247984;22;20005;-87
2023/12/08 00:16:41;;;;;;;0.00;0.00;;;;;;;;;;6263754;23;20004;-88
2023/12/08 00:19:07;;;;;;;0.00;0.00;;;;;;;;;;6200151;23;20004;-89
2023/12/08 00:21:33;;;;;;;0.00;0.00;;;;;;;;;;6251164;22;20073;-89
2023/12/08 00:23:58;;;;;;;0.00;0.00;;;;;;;;;;6225598;23;20095;-89
2023/12/08 00:26:24;;;;;;;0.00;0.00;;;;;;;;;;6202047;23;20035;-89
2023/12/08 00:28:50;;;;;;;0.00;0.00;;;;;;;;;;6254446;22;20058;-90
2023/12/08 00:31:15;;;;;;;0.00;0.00;;;;;;;;;;6201633;23;20339;-90
2023/12/08 00:33:41;;;;;;;0.00;0.00;;;;;;;;;;6199972;23;20039;-89
2023/12/08 00:36:13;;;;;;;0.00;0.00;;;;;;;;;;6225938;23;20062;-89
2023/12/08 00:38:39;;;;;;;0.00;0.00;;;;;;;;;;6202254;23;20004;-89
2023/12/08 00:41:05;;;;;;;0.00;0.00;;;;;;;;;;6228661;23;20012;-90
2023/12/08 00:43:30;;;;;;;0.00;0.00;;;;;;;;;;6256108;23;20073;-89
2023/12/08 00:45:57;;;;;;;0.00;0.00;;;;;;;;;;6230040;23;20093;-88
2023/12/08 00:48:23;;;;;;;0.00;0.00;;;;;;;;;;6255444;23;20000;-89
2023/12/08 00:50:48;;;;;;;0.00;0.00;;;;;;;;;;6254538;23;20026;-88
2023/12/08 00:53:14;;;;;;;0.00;0.00;;;;;;;;;;6257935;22;20036;-88
2023/12/08 00:55:39;;;;;;;0.00;0.00;;;;;;;;;;6260137;23;20030;-89
2023/12/08 00:58:05;;;;;;;0.00;0.00;;;;;;;;;;6260439;23;19996;-88
2023/12/08 01:00:31;;;;;;;0.00;0.00;;;;;;;;;;6233694;23;20011;-90
2023/12/08 01:02:56;;;;;;;0.00;0.00;;;;;;;;;;6260061;23;20010;-88
2023/12/08 01:05:22;;;;;;;0.00;0.00;;;;;;;;;;6261770;22;20001;-88
2023/12/08 01:07:47;;;;;;;0.00;0.00;;;;;;;;;;6238958;23;20004;-87
2023/12/08 01:10:13;;;;;;;0.00;0.00;;;;;;;;;;6273373;22;19997;-88
2023/12/08 01:12:38;;;;;;;0.00;0.00;;;;;;;;;;6274139;22;20055;-85
2023/12/08 01:15:05;;;;;;;0.00;0.00;;;;;;;;;;6274116;22;19996;-85
2023/12/08 01:17:30;;;;;;;0.00;0.00;;;;;;;;;;6240263;22;20019;-89
2023/12/08 01:19:56;;;;;;;0.00;0.00;;;;;;;;;;6260056;22;20415;-88
2023/12/08 01:22:27;;;;;;;0.00;0.00;;;;;;;;;;6271694;22;20083;-88
2023/12/08 01:24:53;;;;;;;0.00;0.00;;;;;;;;;;6274130;22;20004;-88
2023/12/08 01:27:18;;;;;;;0.00;0.00;;;;;;;;;;6223030;22;20007;-85
2023/12/08 01:29:44;;;;;;;0.00;0.00;;;;;;;;;;6274243;22;19996;-87
2023/12/08 01:32:09;;;;;;;0.00;0.00;;;;;;;;;;6272483;22;20014;-87
2023/12/08 01:34:35;;;;;;;0.00;0.00;;;;;;;;;;6273654;22;20015;-90
2023/12/08 01:37:01;;;;;;;0.00;0.00;;;;;;;;;;6247555;22;20060;-87
2023/12/08 01:39:26;;;;;;;0.00;0.00;;;;;;;;;;6273002;22;20000;-83
2023/12/08 01:41:52;;;;;;;0.00;0.00;;;;;;;;;;6274027;22;19988;-86
2023/12/08 01:44:17;;;;;;;0.00;0.00;;;;;;;;;;6247115;22;20016;-87
2023/12/08 01:46:43;;;;;;;0.00;0.00;;;;;;;;;;6273571;22;20042;-83
2023/12/08 01:49:08;;;;;;;0.00;0.00;;;;;;;;;;6273163;22;20011;-89
2023/12/08 01:51:34;;;;;;;0.00;0.00;;;;;;;;;;6247263;22;19988;-89
2023/12/08 01:53:59;;;;;;;0.00;0.00;;;;;;;;;;6247741;22;20016;-89
2023/12/08 01:56:26;;;;;;;0.00;0.00;;;;;;;;;;6273218;22;20007;-88
2023/12/08 01:58:51;;;;;;;0.00;0.00;;;;;;;;;;6246510;22;20003;-88
2023/12/08 02:01:17;;;;;;;0.00;0.00;;;;;;;;;;6247659;22;20071;-87
2023/12/08 02:03:44;;;;;;;0.00;0.00;;;;;;;;;;6248155;22;19992;-88
2023/12/08 02:06:10;;;;;;;0.00;0.00;;;;;;;;;;6247980;22;19996;-87
2023/12/08 02:08:36;;;;;;;0.00;0.00;;;;;;;;;;6271999;22;20019;-86
2023/12/08 02:11:01;;;;;;;0.00;0.00;;;;;;;;;;6273039;22;20007;-83
2023/12/08 02:13:27;;;;;;;0.00;0.00;;;;;;;;;;6222603;22;20012;-88
2023/12/08 02:15:56;;;;;;;0.00;0.00;;;;;;;;;;6273116;22;20000;-86
2023/12/08 02:18:21;;;;;;;0.00;0.00;;;;;;;;;;6248296;22;20008;-87
2023/12/08 02:20:47;;;;;;;0.00;0.00;;;;;;;;;;6222817;22;19984;-87
2023/12/08 02:23:12;;;;;;;0.00;0.00;;;;;;;;;;6222538;22;19984;-88
2023/12/08 02:25:38;;;;;;;0.00;0.00;;;;;;;;;;6273230;22;20007;-84
2023/12/08 02:28:04;;;;;;;0.00;0.00;;;;;;;;;;6272603;22;19992;-88
2023/12/08 02:30:29;;;;;;;0.00;0.00;;;;;;;;;;6247880;22;20016;-86
2023/12/08 02:33:03;;;;;;;0.00;0.00;;;;;;;;;;6246531;22;20072;-88
2023/12/08 02:35:29;;;;;;;0.00;0.00;;;;;;;;;;6272728;22;20044;-87
2023/12/08 02:37:55;;;;;;;0.00;0.00;;;;;;;;;;6247625;22;19993;-88
2023/12/08 02:40:20;;;;;;;0.00;0.00;;;;;;;;;;6247479;22;20010;-88
2023/12/08 02:42:46;;;;;;;0.00;0.00;;;;;;;;;;6247226;22;20068;-86
2023/12/08 02:45:11;;;;;;;0.00;0.00;;;;;;;;;;6268696;23;20015;-86
2023/12/08 02:47:37;;;;;;;0.00;0.00;;;;;;;;;;6272523;22;20015;-87
2023/12/08 02:50:03;;;;;;;0.00;0.00;;;;;;;;;;6271988;22;20015;-86
2023/12/08 02:52:28;;;;;;;0.00;0.00;;;;;;;;;;6271098;22;20015;-87
2023/12/08 02:54:54;;;;;;;0.00;0.00;;;;;;;;;;6243047;23;20027;-88
2023/12/08 02:57:19;;;;;;;0.00;0.00;;;;;;;;;;6242735;23;19988;-89
2023/12/08 02:59:45;;;;;;;0.00;0.00;;;;;;;;;;6266268;23;20354;-88
2023/12/08 03:02:10;;;;;;;0.00;0.00;;;;;;;;;;6218591;23;20008;-88
2023/12/08 03:04:36;;;;;;;0.00;0.00;;;;;;;;;;6231347;23;20088;-87
2023/12/08 03:07:02;;;;;;;0.00;0.00;;;;;;;;;;6253532;23;20023;-88
2023/12/08 03:09:28;;;;;;;0.00;0.00;;;;;;;;;;6254812;22;20347;-89
2023/12/08 03:11:53;;;;;;;0.00;0.00;;;;;;;;;;6202234;23;20004;-90
2023/12/08 03:14:19;;;;;;;0.00;0.00;;;;;;;;;;6231512;23;20026;-88
2023/12/08 03:16:46;;;;;;;0.00;0.00;;;;;;;;;;6231624;23;20445;-89
2023/12/08 03:19:12;;;;;;;0.00;0.00;;;;;;;;;;6232824;23;20012;-89
2023/12/08 03:21:37;;;;;;;0.00;0.00;;;;;;;;;;6228505;23;20000;-89
2023/12/08 03:24:03;;;;;;;0.00;0.00;;;;;;;;;;6254233;23;20027;-89
2023/12/08 03:26:28;;;;;;;0.00;0.00;;;;;;;;;;6257095;23;20004;-90
2023/12/08 03:28:54;;;;;;;0.00;0.00;;;;;;;;;;6254523;23;20001;-89
2023/12/08 03:31:23;;;;;;;0.00;0.00;;;;;;;;;;6257347;22;20038;-89
2023/12/08 03:33:50;;;;;;;0.00;0.00;;;;;;;;;;6255270;23;20023;-90
2023/12/08 03:36:15;;;;;;;0.00;0.00;;;;;;;;;;6229675;23;20031;-90
2023/12/08 03:38:41;;;;;;;0.00;0.00;;;;;;;;;;6207382;23;20070;-89
2023/12/08 03:41:06;;;;;;;0.00;0.00;;;;;;;;;;6205831;23;20015;-88
2023/12/08 03:43:32;;;;;;;0.00;0.00;;;;;;;;;;6231027;23;20011;-88
2023/12/08 03:45:57;;;;;;;0.00;0.00;;;;;;;;;;6257973;22;20012;-89
2023/12/08 03:48:23;;;;;;;0.00;0.00;;;;;;;;;;6257400;23;20011;-89
2023/12/08 03:50:48;;;;;;;0.00;0.00;;;;;;;;;;6260969;22;20019;-89
2023/12/08 03:53:14;;;;;;;0.00;0.00;;;;;;;;;;6261028;23;20134;-89
2023/12/08 03:55:39;;;;;;;0.00;0.00;;;;;;;;;;6256072;23;20008;-89
2023/12/08 03:58:05;;;;;;;0.00;0.00;;;;;;;;;;6258036;22;20086;-90
2023/12/08 04:00:31;;;;;;;0.00;0.00;;;;;;;;;;6255043;23;20058;-89
2023/12/08 04:03:00;;;;;;;0.00;0.00;;;;;;;;;;6256395;23;20007;-88
2023/12/08 04:05:25;;;;;;;0.00;0.00;;;;;;;;;;6229784;23;20036;-88
2023/12/08 04:07:51;;;;;;;0.00;0.00;;;;;;;;;;6227843;23;20004;-89
2023/12/08 04:10:16;;;;;;;0.00;0.00;;;;;;;;;;6252906;22;20008;-88
2023/12/08 04:12:42;;;;;;;0.00;0.00;;;;;;;;;;6228713;23;19997;-88
2023/12/08 04:15:08;;;;;;;0.00;0.00;;;;;;;;;;6253073;23;20000;-89
2023/12/08 04:17:33;;;;;;;0.00;0.00;;;;;;;;;;6252720;23;20007;-89
2023/12/08 04:19:59;;;;;;;0.00;0.00;;;;;;;;;;6227393;23;20008;-89
2023/12/08 04:22:26;;;;;;;0.00;0.00;;;;;;;;;;6227183;23;20000;-89
2023/12/08 04:24:51;;;;;;;0.00;0.00;;;;;;;;;;6225072;23;20000;-88
2023/12/08 04:27:17;;;;;;;0.00;0.00;;;;;;;;;;6224735;23;20000;-89
2023/12/08 04:29:42;;;;;;;0.00;0.00;;;;;;;;;;6252375;23;20059;-89
2023/12/08 04:32:08;;;;;;;0.00;0.00;;;;;;;;;;6254318;23;20024;-89
2023/12/08 04:34:33;;;;;;;0.00;0.00;;;;;;;;;;6251093;22;20079;-89
2023/12/08 04:36:59;;;;;;;0.00;0.00;;;;;;;;;;6249251;23;20427;-89
2023/12/08 04:39:25;;;;;;;0.00;0.00;;;;;;;;;;6251186;23;20014;-89
2023/12/08 04:41:50;;;;;;;0.00;0.00;;;;;;;;;;6253693;23;20079;-89
2023/12/08 04:44:16;;;;;;;0.00;0.00;;;;;;;;;;6230992;23;20008;-88
2023/12/08 04:46:41;;;;;;;0.00;0.00;;;;;;;;;;6256016;23;20000;-88
2023/12/08 04:49:07;;;;;;;0.00;0.00;;;;;;;;;;6250001;23;20067;-88
2023/12/08 04:51:32;;;;;;;0.00;0.00;;;;;;;;;;6253671;23;20491;-89
2023/12/08 04:53:58;;;;;;;0.00;0.00;;;;;;;;;;6253922;22;20011;-88
2023/12/08 04:56:23;;;;;;;0.00;0.00;;;;;;;;;;6250986;23;20441;-88
2023/12/08 04:58:49;;;;;;;0.00;0.00;;;;;;;;;;6249241;23;20012;-89
2023/12/08 05:01:15;;;;;;;0.00;0.00;;;;;;;;;;6256274;22;20057;-89
2023/12/08 05:03:41;;;;;;;0.00;0.00;;;;;;;;;;6251911;23;20402;-89
2023/12/08 05:06:07;;;;;;;0.00;0.00;;;;;;;;;;6252101;23;20018;-88
2023/12/08 05:08:33;;;;;;;0.00;0.00;;;;;;;;;;6227847;23;20094;-89
2023/12/08 05:10:58;;;;;;;0.00;0.00;;;;;;;;;;6199048;23;20008;-89
2023/12/08 05:13:24;;;;;;;0.00;0.00;;;;;;;;;;6247069;23;20011;-89
2023/12/08 05:15:50;;;;;;;0.00;0.00;;;;;;;;;;6260566;23;20114;-92
2023/12/08 05:18:15;;;;;;;0.00;0.00;;;;;;;;;;6257059;22;20434;-90
2023/12/08 05:20:41;;;;;;;0.00;0.00;;;;;;;;;;6229515;23;20008;-91
2023/12/08 05:23:07;;;;;;;0.00;0.00;;;;;;;;;;6233877;23;20097;-91
2023/12/08 05:25:32;;;;;;;0.00;0.00;;;;;;;;;;6224824;23;20026;-93
2023/12/08 05:27:58;;;;;;;0.00;0.00;;;;;;;;;;6248076;23;20000;-93
2023/12/08 05:30:23;;;;;;;0.00;0.00;;;;;;;;;;6249573;23;20012;-92
2023/12/08 05:32:49;;;;;;;0.00;0.00;;;;;;;;;;6250419;22;20030;-92
2023/12/08 05:35:14;;;;;;;0.00;0.00;;;;;;;;;;6247057;23;20023;-93
2023/12/08 05:37:40;;;;;;;0.00;0.00;;;;;;;;;;6251067;23;20004;-92
2023/12/08 05:40:06;;;;;;;0.00;0.00;;;;;;;;;;6260865;23;20070;-91
2023/12/08 05:42:32;;;;;;;0.00;0.00;;;;;;;;;;6252538;22;19997;-90
2023/12/08 05:44:58;;;;;;;0.00;0.00;;;;;;;;;;6259571;23;20010;-94
2023/12/08 05:47:27;;;;;;;0.00;0.00;;;;;;;;;;6251452;23;20004;-84
2023/12/08 05:49:52;;;;;;;0.00;0.00;;;;;;;;;;6223634;23;20019;-89
2023/12/08 05:52:18;;;;;;;0.00;0.00;;;;;;;;;;6203174;23;20020;-88
2023/12/08 05:54:44;;;;;;;0.00;0.00;;;;;;;;;;6252512;22;20011;-88
2023/12/08 05:57:13;;;;;;;0.00;0.00;;;;;;;;;;6196402;23;20004;-88
2023/12/08 05:59:39;;;;;;;0.00;0.00;;;;;;;;;;6215226;23;20020;-86
2023/12/08 06:02:05;;;;;;;0.00;0.00;;;;;;;;;;6238701;23;20008;-86
2023/12/08 06:04:30;;;;;;;0.00;0.00;;;;;;;;;;6238653;23;20073;-87
2023/12/08 06:06:56;;;;;;;0.00;0.00;;;;;;;;;;6242619;22;20016;-87
2023/12/08 06:09:21;;;;;;;0.00;0.00;;;;;;;;;;6242871;23;20099;-88
2023/12/08 06:11:47;;;;;;;0.00;0.00;;;;;;;;;;6239280;23;20008;-86
2023/12/08 06:14:13;;;;;;;0.00;0.00;;;;;;;;;;6239018;22;20008;-87
2023/12/08 06:16:38;;;;;;;0.00;0.00;;;;;;;;;;6211886;23;20091;-87
2023/12/08 06:19:04;;;;;;;0.00;0.00;;;;;;;;;;6241077;23;20012;-88
2023/12/08 06:21:33;;;;;;;0.00;0.00;;;;;;;;;;6243240;23;19997;-89
2023/12/08 06:23:58;;;;;;;0.00;0.00;;;;;;;;;;6210109;23;20014;-88
2023/12/08 06:26:26;;;;;;;0.00;0.00;;;;;;;;;;6185814;23;20090;-89
2023/12/08 06:28:52;;;;;;;0.00;0.00;;;;;;;;;;6213037;23;20038;-89
2023/12/08 06:31:17;;;;;;;0.00;0.00;;;;;;;;;;6212867;23;20087;-89
2023/12/08 06:33:43;;;;;;;0.00;0.00;;;;;;;;;;6222990;23;20031;-88
2023/12/08 06:36:09;;;;;;;0.00;0.00;;;;;;;;;;6215534;23;20328;-87
2023/12/08 06:38:37;;;;;;;0.10;0.00;;;;;;;;;;6245369;23;20004;-88
2023/12/08 06:41:06;;;;;;;0.00;0.00;;;;;;;;;;6220435;23;20000;-90
2023/12/08 06:43:33;;;;;;;0.00;0.00;;;;;;;;;;6201241;22;20012;-90
2023/12/08 06:46:01;;;;;;;0.00;0.00;;;;;;;;;;6229830;23;20072;-90
2023/12/08 06:48:28;;;;;;;0.00;0.00;;;;;;;;;;6200675;23;20012;-88
2023/12/08 06:50:58;;;;;;;0.00;0.00;;;;;;;;;;6230592;23;20073;-90
2023/12/08 06:53:26;;;;;;;0.00;0.00;;;;;;;;;;6203193;23;20007;-90
2023/12/08 06:55:53;;;;;;;0.00;0.00;;;;;;;;;;6225215;23;20008;-92
2023/12/08 06:58:28;;;;;;;0.00;0.00;;;;;;;;;;6199745;23;20083;-88
2023/12/08 07:00:54;;;;;;;0.00;0.00;;;;;;;;;;6252666;22;20000;-91
2023/12/08 07:03:24;;;;;;;0.00;0.00;;;;;;;;;;6202934;23;20015;-86
2023/12/08 07:08:24;;;;;;;0.00;0.00;;;;;;;;;;6254651;22;20478;-88
2023/12/08 07:10:50;;;;;;;0.00;0.00;;;;;;;;;;6250711;23;20004;-90
2023/12/08 07:13:15;;;;;;;0.00;0.00;;;;;;;;;;6196609;23;20011;-89
2023/12/08 07:15:41;;;;;;;0.00;0.00;;;;;;;;;;6224545;23;20101;-92
2023/12/08 07:18:06;;;;;;;0.00;0.00;;;;;;;;;;6206388;23;20010;-93
2023/12/08 07:20:34;;;;;;;0.00;0.00;;;;;;;;;;6234175;23;19999;-91
2023/12/08 07:22:59;;;;;;;0.00;0.00;;;;;;;;;;6229108;23;20081;-93
2023/12/08 07:25:36;;;;;;;0.00;0.00;;;;;;;;;;6212554;23;20000;-92
2023/12/08 07:28:16;;;;;;;0.00;0.00;;;;;;;;;;6268205;22;20012;-94
2023/12/08 07:30:42;;;;;;;0.00;0.00;;;;;;;;;;6243465;23;19994;-93
2023/12/08 07:33:09;;;;;;;0.00;0.00;;;;;;;;;;6237111;23;20004;-90
2023/12/08 07:35:36;;;;;;;0.00;0.00;;;;;;;;;;6230457;23;20000;-92
2023/12/08 07:38:03;;;;;;;0.00;0.00;;;;;;;;;;6241093;23;20008;-93
2023/12/08 07:40:37;;;;;;;0.00;0.00;;;;;;;;;;6238876;22;20012;-88
2023/12/08 07:43:04;;;;;;;0.00;0.00;;;;;;;;;;6221770;23;20000;-87
2023/12/08 07:45:30;;;;;;;0.00;0.00;;;;;;;;;;6244809;23;20344;-85
2023/12/08 07:47:55;;;;;;;0.00;0.00;;;;;;;;;;6244567;23;20016;-93
2023/12/08 07:50:21;;;;;;;0.00;0.00;;;;;;;;;;6248309;23;20004;-87
2023/12/08 07:52:47;;;;;;;0.00;0.00;;;;;;;;;;6243029;22;20111;-85
2023/12/08 07:55:15;;;;;;;0.00;0.00;;;;;;;;;;6213877;23;20088;-89
2023/12/08 07:57:42;;;;;;;0.00;0.00;;;;;;;;;;6239362;23;20004;-83
2023/12/08 08:00:11;;;;;;;0.00;0.00;;;;;;;;;;6245925;22;19996;-90
2023/12/08 08:02:37;;;;;;;0.00;0.00;;;;;;;;;;6246249;23;20014;-94
2023/12/08 08:05:03;;;;;;;0.00;0.00;;;;;;;;;;6193420;23;20067;-89
2023/12/08 08:07:30;;;;;;;0.00;0.00;;;;;;;;;;6247670;23;20008;-88
2023/12/08 08:09:57;;;;;;;0.00;0.00;;;;;;;;;;6204307;23;20012;-91
2023/12/08 08:12:32;;;;;;;0.00;0.00;;;;;;;;;;6204398;23;20095;-93
2023/12/08 08:14:57;;;;;;;0.00;0.00;;;;;;;;;;6249920;23;20015;-91
2023/12/08 08:17:23;;;;;;;0.00;0.00;;;;;;;;;;6198766;23;20000;-87
2023/12/08 08:19:49;;;;;;;0.00;0.00;;;;;;;;;;6228605;23;20134;-94
2023/12/08 08:22:18;;;;;;;0.00;0.00;;;;;;;;;;6202260;23;20009;-92
2023/12/08 08:24:44;;;;;;;0.00;0.00;;;;;;;;;;6229570;23;20012;-90
2023/12/08 08:27:15;;;;;;;0.00;0.00;;;;;;;;;;6199682;23;20319;-91
2023/12/08 08:29:42;;;;;;;0.00;0.00;;;;;;;;;;6225795;23;20071;-92
2023/12/08 08:32:10;;;;;;;0.00;0.00;;;;;;;;;;6258319;23;20008;-91
2023/12/08 08:34:36;;;;;;;0.00;0.00;;;;;;;;;;6253508;22;20106;-91
2023/12/08 08:37:02;;;;;;;0.00;0.00;;;;;;;;;;6217126;23;20146;-88
2023/12/08 08:39:27;;;;;;;0.00;0.00;;;;;;;;;;6247666;23;20062;-90
2023/12/08 08:41:53;;;;;;;0.00;0.00;;;;;;;;;;6223056;23;20000;-89
2023/12/08 08:44:19;;;;;;;0.00;0.00;;;;;;;;;;6197001;23;20011;-90
2023/12/08 08:46:44;;;;;;;0.00;0.00;;;;;;;;;;6254809;22;20035;-91
2023/12/08 08:49:10;;;;;;;0.00;0.00;;;;;;;;;;6247251;23;20126;-92
2023/12/08 08:51:36;;;;;;;0.00;0.00;;;;;;;;;;6224317;23;20008;-88
2023/12/08 08:54:03;;;;;;;0.00;0.00;;;;;;;;;;6250943;23;20000;-90
2023/12/08 08:56:28;;;;;;;0.00;0.00;;;;;;;;;;6197578;23;20016;-90
2023/12/08 08:58:54;;;;;;;0.00;0.00;;;;;;;;;;6225412;23;20008;-91
2023/12/08 09:01:20;;;;;;;0.00;0.00;;;;;;;;;;6248604;23;20015;-90
2023/12/08 09:03:46;;;;;;;0.00;0.00;;;;;;;;;;6242044;23;20095;-89
2023/12/08 09:06:11;;;;;;;0.00;0.00;;;;;;;;;;6246299;22;20069;-84
2023/12/08 09:08:37;;;;;;;0.00;0.00;;;;;;;;;;6225470;23;20036;-88
2023/12/08 09:11:02;;;;;;;0.00;0.00;;;;;;;;;;6245444;22;20000;-88
2023/12/08 09:13:29;;;;;;;0.00;0.00;;;;;;;;;;6260024;23;20018;-91
2023/12/08 09:15:55;;;;;;;0.00;0.00;;;;;;;;;;6242753;23;20028;-85
2023/12/08 09:18:20;;;;;;;0.00;0.00;;;;;;;;;;6267707;22;19992;-86
2023/12/08 09:20:46;;;;;;;0.00;0.00;;;;;;;;;;6261013;23;20004;-84
2023/12/08 09:23:14;;;;;;;0.00;0.00;;;;;;;;;;6259021;22;20015;-83
2023/12/08 09:25:40;;;;;;;0.00;0.00;;;;;;;;;;6234461;23;20040;-83
2023/12/08 09:28:05;;;;;;;0.00;0.00;;;;;;;;;;6247443;22;20008;-88
2023/12/08 09:30:31;;;;;;;0.00;0.00;;;;;;;;;;6240497;23;20070;-90
2023/12/08 09:33:00;;;;;;;0.00;0.00;;;;;;;;;;6246776;23;20028;-95
2023/12/08 09:35:25;;;;;;;0.00;0.00;;;;;;;;;;6217539;23;20027;-85
2023/12/08 09:37:51;;;;;;;0.00;0.00;;;;;;;;;;6250162;23;20011;-84
2023/12/08 09:40:16;;;;;;;0.00;0.00;;;;;;;;;;6247529;22;20335;-83
2023/12/08 09:42:44;;;;;;;0.00;0.00;;;;;;;;;;6246788;22;20000;-91
2023/12/08 09:45:10;;;;;;;0.00;0.00;;;;;;;;;;6197867;23;20351;-85
2023/12/08 09:47:35;;;;;;;0.00;0.00;;;;;;;;;;6220552;23;20007;-85
2023/12/08 09:50:02;;;;;;;0.00;0.00;;;;;;;;;;6244490;23;20008;-91
2023/12/08 09:52:29;;;;;;;0.00;0.00;;;;;;;;;;6217931;23;20061;-86
2023/12/08 09:54:55;;;;;;;0.00;0.00;;;;;;;;;;6247356;23;20414;-90
2023/12/08 09:57:21;;;;;;;0.00;0.00;;;;;;;;;;6221331;23;20097;-79
2023/12/08 09:59:47;;;;;;;0.00;0.00;;;;;;;;;;6242787;22;20000;-78
2023/12/08 10:02:13;;;;;;;0.00;0.00;;;;;;;;;;6242000;22;20004;-83
2023/12/08 10:04:38;;;;;;;0.00;0.00;;;;;;;;;;6241566;23;20019;-81
2023/12/08 10:07:04;;;;;;;0.00;0.00;;;;;;;;;;6215525;23;20453;-84
2023/12/08 10:09:29;;;;;;;0.00;0.00;;;;;;;;;;6191941;23;20407;-87
2023/12/08 10:11:55;;;;;;;0.00;0.00;;;;;;;;;;6244904;23;20084;-81
2023/12/08 10:14:26;;;;;;;0.00;0.00;;;;;;;;;;6244732;22;20007;-84
2023/12/08 10:16:52;;;;;;;0.00;0.00;;;;;;;;;;6244614;23;20006;-84
2023/12/08 10:19:20;;;;;;;0.00;0.00;;;;;;;;;;6242556;23;20004;-85
2023/12/08 10:21:55;;;;;;;0.00;0.00;;;;;;;;;;6241815;22;20008;-83
2023/12/08 10:24:20;;;;;;;0.00;0.00;;;;;;;;;;6219419;23;20004;-79
2023/12/08 10:26:46;;;;;;;0.00;0.00;;;;;;;;;;6243247;22;20082;-81
2023/12/08 10:29:11;;;;;;;0.00;0.00;;;;;;;;;;6216339;23;20008;-80
2023/12/08 10:31:39;;;;;;;0.00;0.00;;;;;;;;;;6242603;23;20450;-80
2023/12/08 10:34:04;;;;;;;0.00;0.00;;;;;;;;;;6223279;23;20000;-82
2023/12/08 10:36:30;;;;;;;0.00;0.00;;;;;;;;;;6218141;23;20087;-79
2023/12/08 10:38:57;;;;;;;0.00;0.00;;;;;;;;;;6243242;22;20362;-84
2023/12/08 10:41:22;;;;;;;0.00;0.00;;;;;;;;;;6245297;22;20015;-84
2023/12/08 10:43:48;;;;;;;0.00;0.00;;;;;;;;;;6212141;23;20031;-81
2023/12/08 10:46:13;;;;;;;0.00;0.00;;;;;;;;;;6240594;22;20004;-83
2023/12/08 10:48:39;;;;;;;0.00;0.00;;;;;;;;;;6244494;22;20001;-87
2023/12/08 10:51:05;;;;;;;0.00;0.00;;;;;;;;;;6225864;23;19992;-89
2023/12/08 10:53:31;;;;;;;0.00;0.00;;;;;;;;;;6246182;23;20066;-81
2023/12/08 10:56:03;;;;;;;0.00;0.00;;;;;;;;;;6238533;23;20008;-89
2023/12/08 10:58:32;;;;;;;0.00;0.00;;;;;;;;;;6220221;23;20004;-87
2023/12/08 11:00:59;;;;;;;0.00;0.00;;;;;;;;;;6219657;23;20004;-89
2023/12/08 11:03:32;;;;;;;0.00;0.00;;;;;;;;;;6236216;22;20103;-82
2023/12/08 11:06:10;;;;;;;0.00;0.00;;;;;;;;;;6238306;22;20008;-85
2023/12/08 11:08:36;;;;;;;0.00;0.00;;;;;;;;;;6152346;23;20108;-83
2023/12/08 11:11:03;;;;;;;0.00;0.00;;;;;;;;;;6178424;23;20044;-86
2023/12/08 11:13:30;;;;;;;0.00;0.00;;;;;;;;;;6153100;23;20012;-81
2023/12/08 11:16:20;;;;;;;0.00;0.00;;;;;;;;;;6177094;23;20009;-81
2023/12/08 11:18:45;;;;;;;0.00;0.00;;;;;;;;;;6205685;23;20091;-81
2023/12/08 11:21:11;;;;;;;0.00;0.00;;;;;;;;;;6129098;23;20012;-84
2023/12/08 11:23:38;;;;;;;0.00;0.00;;;;;;;;;;6205790;23;20008;-83
2023/12/08 11:26:07;;;;;;;0.00;0.00;;;;;;;;;;6156193;23;20008;-91
2023/12/08 11:28:50;;;;;;;0.10;0.00;;;;;;;;;;6207358;23;20088;-87
2023/12/08 11:31:26;;;;;;;0.00;0.00;;;;;;;;;;6211184;23;20505;-85
2023/12/08 11:34:00;;;;;;;0.00;0.00;;;;;;;;;;6159246;23;20347;-84
2023/12/08 11:36:28;;;;;;;0.00;0.00;;;;;;;;;;6157777;23;20005;-88
2023/12/08 11:38:54;;;;;;;0.00;0.00;;;;;;;;;;6188178;23;20012;-87
2023/12/08 11:41:21;;;;;;;0.00;0.00;;;;;;;;;;6156362;23;20075;-84
2023/12/08 11:43:47;;;;;;;0.00;0.00;;;;;;;;;;6137509;23;20039;-88
2023/12/08 11:46:15;;;;;;;0.00;0.00;;;;;;;;;;6185873;23;20091;-85
2023/12/08 11:48:42;;;;;;;0.00;0.00;;;;;;;;;;6213444;23;20009;-92
2023/12/08 11:51:07;;;;;;;0.00;0.00;;;;;;;;;;6133194;23;20011;-83
2023/12/08 11:53:48;;;;;;;0.00;0.00;;;;;;;;;;6181563;23;20009;-85
2023/12/08 11:56:32;;;;;;;;;;;;;;;;;;6160114;23;20032;-84
2023/12/08 11:59:00;;;;;;;0.00;0.00;;;;;;;;;;6208889;23;20334;-86
2023/12/08 12:01:26;;;;;;;0.00;0.00;;;;;;;;;;6159106;23;20060;-89
2023/12/08 12:03:54;;;;;;;0.00;0.00;;;;;;;;;;6184466;23;20027;-81
2023/12/08 12:06:20;;;;;;;0.00;0.00;;;;;;;;;;6214239;23;20004;-83
2023/12/08 12:08:46;;;;;;;0.00;0.00;;;;;;;;;;6241126;23;20008;-81
2023/12/08 12:11:11;;;;;;;0.00;0.00;;;;;;;;;;6193900;23;20008;-87
2023/12/08 12:13:37;;;;;;;0.00;0.00;;;;;;;;;;6194419;23;20425;-89
2023/12/08 12:16:03;;;;;;;0.00;0.00;;;;;;;;;;6221665;23;20024;-87
2023/12/08 12:18:30;;;;;;;0.00;0.00;;;;;;;;;;6217144;23;20381;-85
2023/12/08 12:20:55;;;;;;;0.00;0.00;;;;;;;;;;6242269;22;20069;-85
2023/12/08 12:23:21;;;;;;;0.00;0.00;;;;;;;;;;6243302;23;20131;-85
2023/12/08 12:25:48;;;;;;;0.00;0.00;;;;;;;;;;6215512;23;20427;-85
2023/12/08 12:28:16;;;;;;;0.00;0.00;;;;;;;;;;6241803;23;20014;-86
2023/12/08 12:30:41;;;;;;;0.00;0.00;;;;;;;;;;6242302;23;20071;-85
2023/12/08 12:33:07;;;;;;;0.00;0.00;;;;;;;;;;6241639;22;20004;-84
2023/12/08 12:35:32;;;;;;;0.00;0.00;;;;;;;;;;6189624;23;20020;-85
2023/12/08 12:37:58;;;;;;;0.00;0.00;;;;;;;;;;6240772;22;20053;-85
2023/12/08 12:40:24;;;;;;;0.00;0.00;;;;;;;;;;6231896;23;20421;-84
2023/12/08 12:42:50;;;;;;;0.00;0.00;;;;;;;;;;6233058;23;20004;-85
2023/12/08 12:45:29;;;;;;;0.00;0.00;;;;;;;;;;6237276;22;20008;-85
2023/12/08 12:48:06;;;;;;;0.00;0.00;;;;;;;;;;6236947;23;20024;-84
2023/12/08 12:50:43;;;;;;;0.00;0.00;;;;;;;;;;6240739;23;20000;-84
2023/12/08 12:53:09;;;;;;;0.00;0.00;;;;;;;;;;6240379;23;20000;-84
2023/12/08 12:55:34;;;;;;;0.00;0.00;;;;;;;;;;6243308;22;20007;-84
2023/12/08 12:58:02;;;;;;;0.00;0.00;;;;;;;;;;6235295;23;20000;-84
2023/12/08 13:00:37;;;;;;;0.00;0.00;;;;;;;;;;6238813;23;20355;-84
2023/12/08 13:03:10;;;;;;;0.00;0.00;;;;;;;;;;6236285;23;20000;-84
2023/12/08 13:05:52;;;;;;;0.00;0.00;;;;;;;;;;6238049;23;20462;-84
2023/12/08 13:08:19;;;;;;;0.00;0.00;;;;;;;;;;6236986;22;20013;-83
2023/12/08 13:10:45;;;;;;;0.00;0.00;;;;;;;;;;6234282;22;20093;-84
2023/12/08 13:13:12;;;;;;;0.00;0.00;;;;;;;;;;6212464;23;20004;-84
2023/12/08 13:15:37;;;;;;;0.00;0.00;;;;;;;;;;6217344;23;20004;-84
2023/12/08 13:18:04;;;;;;;0.00;0.00;;;;;;;;;;6218032;23;20502;-85
2023/12/08 13:20:29;;;;;;;0.00;0.00;;;;;;;;;;6242349;23;20083;-85
2023/12/08 13:22:55;;;;;;;0.00;0.00;;;;;;;;;;6243040;23;20000;-89
2023/12/08 13:25:20;;;;;;;0.00;0.00;;;;;;;;;;6242424;23;20023;-85
2023/12/08 13:27:46;;;;;;;0.00;0.00;;;;;;;;;;6218136;23;20000;-85
2023/12/08 13:30:12;;;;;;;0.00;0.00;;;;;;;;;;6242634;22;20145;-85
2023/12/08 13:32:37;;;;;;;0.00;0.00;;;;;;;;;;6241282;23;20071;-85
2023/12/08 13:35:05;;;;;;;0.00;0.00;;;;;;;;;;6242519;22;20475;-85
2023/12/08 13:37:30;;;;;;;0.00;0.00;;;;;;;;;;6241474;22;20023;-85
2023/12/08 13:39:56;;;;;;;0.00;0.00;;;;;;;;;;6239945;23;20011;-85
2023/12/08 13:42:21;;;;;;;0.00;0.00;;;;;;;;;;6241700;22;19996;-85
2023/12/08 13:44:47;;;;;;;0.00;0.00;;;;;;;;;;6242351;22;20079;-85
2023/12/08 13:47:12;;;;;;;0.00;0.00;;;;;;;;;;6216139;23;20427;-86
2023/12/08 13:49:38;;;;;;;0.00;0.00;;;;;;;;;;6219295;23;20094;-85
2023/12/08 13:52:03;;;;;;;0.00;0.00;;;;;;;;;;6248733;23;20001;-84
2023/12/08 13:54:29;;;;;;;0.00;0.00;;;;;;;;;;6224255;23;20004;-84
2023/12/08 13:56:55;;;;;;;0.00;0.00;;;;;;;;;;6247197;22;20004;-86
2023/12/08 13:59:21;;;;;;;0.00;0.00;;;;;;;;;;6258817;23;20019;-85
2023/12/08 14:01:46;;;;;;;0.00;0.00;;;;;;;;;;6247909;23;20003;-85
2023/12/08 14:04:12;;;;;;;0.00;0.00;;;;;;;;;;6246075;22;20004;-86
2023/12/08 14:06:37;;;;;;;0.00;0.00;;;;;;;;;;6248295;23;20490;-86
2023/12/08 14:09:03;;;;;;;0.00;0.00;;;;;;;;;;6219953;23;20015;-86
2023/12/08 14:11:28;;;;;;;0.00;0.00;;;;;;;;;;6259410;23;20085;-86
2023/12/08 14:13:54;;;;;;;0.00;0.00;;;;;;;;;;6249709;23;20054;-85
2023/12/08 14:16:21;;;;;;;0.00;0.00;;;;;;;;;;6200152;23;20011;-87
2023/12/08 14:18:46;;;;;;;0.00;0.00;;;;;;;;;;6217787;23;20015;-86
2023/12/08 14:21:12;;;;;;;0.00;0.00;;;;;;;;;;6217230;23;20004;-86
2023/12/08 14:23:39;;;;;;;0.00;0.00;;;;;;;;;;6242745;23;20397;-86
2023/12/08 14:26:05;;;;;;;0.00;0.00;;;;;;;;;;6242782;23;20327;-86
2023/12/08 14:28:30;;;;;;;0.00;0.00;;;;;;;;;;6243834;22;20004;-86
2023/12/08 14:30:56;;;;;;;0.00;0.00;;;;;;;;;;6242861;23;20428;-86
2023/12/08 14:33:22;;;;;;;0.00;0.00;;;;;;;;;;6242543;23;20004;-86
2023/12/08 14:35:48;;;;;;;0.00;0.00;;;;;;;;;;6243954;22;20004;-86
2023/12/08 14:38:15;;;;;;;0.00;0.00;;;;;;;;;;6242625;23;20010;-86
2023/12/08 14:40:41;;;;;;;0.00;0.00;;;;;;;;;;6242451;23;20079;-85
2023/12/08 14:43:06;;;;;;;0.00;0.00;;;;;;;;;;6243825;22;20008;-86